createdAt,value
2018-05-18T00:00:48.558Z,12.90
2018-05-18T00:03:17.396Z,12.90
2018-05-18T00:05:46.224Z,12.80
2018-05-18T00:08:15.076Z,12.80
2018-05-18T00:10:43.908Z,12.80
2018-05-18T00:13:12.744Z,12.80
2018-05-18T00:15:42.317Z,12.70
2018-05-18T00:18:11.155Z,12.80
2018-05-18T00:20:39.992Z,12.70
2018-05-18T00:23:08.821Z,12.70
2018-05-18T00:25:39.571Z,12.70
2018-05-18T00:28:07.262Z,12.70
2018-05-18T00:30:36.107Z,12.60
2018-05-18T00:33:04.959Z,12.60
2018-05-18T00:35:33.798Z,12.60
2018-05-18T00:38:02.716Z,12.60
2018-05-18T00:40:31.471Z,12.60
2018-05-18T00:43:01.055Z,12.60
2018-05-18T00:45:29.890Z,12.60
2018-05-18T00:47:58.727Z,12.60
2018-05-18T00:50:27.551Z,12.50
2018-05-18T00:52:56.380Z,12.60
2018-05-18T00:55:41.111Z,12.60
2018-05-18T00:58:09.954Z,12.50
2018-05-18T01:00:39.863Z,12.50
2018-05-18T01:03:07.660Z,12.30
2018-05-18T01:05:36.495Z,12.20
2018-05-18T01:08:05.332Z,12.10
2018-05-18T01:10:34.175Z,12.10
2018-05-18T01:13:03.024Z,12.10
2018-05-18T01:15:31.860Z,12.00
2018-05-18T01:18:00.699Z,12.00
2018-05-18T01:20:29.532Z,12.00
2018-05-18T01:22:58.377Z,12.00
2018-05-18T01:25:27.963Z,12.00
2018-05-18T01:27:56.785Z,11.90
2018-05-18T01:30:25.629Z,11.90
2018-05-18T01:32:54.461Z,11.90
2018-05-18T01:35:23.292Z,11.90
2018-05-18T01:37:52.141Z,11.90
2018-05-18T01:40:21.163Z,11.80
2018-05-18T01:42:50.013Z,11.90
2018-05-18T01:45:18.852Z,11.80
2018-05-18T01:47:47.689Z,11.70
2018-05-18T01:50:17.262Z,11.70
2018-05-18T01:52:46.097Z,11.70
2018-05-18T01:55:14.949Z,11.70
2018-05-18T01:57:43.773Z,11.70
2018-05-18T02:00:13.102Z,11.70
2018-05-18T02:02:41.840Z,11.70
2018-05-18T02:05:10.685Z,11.70
2018-05-18T02:07:39.515Z,11.60
2018-05-18T02:10:08.342Z,11.50
2018-05-18T02:12:37.189Z,11.50
2018-05-18T02:15:06.036Z,11.60
2018-05-18T02:17:35.501Z,11.50
2018-05-18T02:20:05.076Z,11.50
2018-05-18T02:22:33.981Z,11.50
2018-05-18T02:25:02.821Z,11.40
2018-05-18T02:27:31.645Z,11.40
2018-05-18T02:30:00.493Z,11.30
2018-05-18T02:32:29.576Z,11.30
2018-05-18T02:34:58.169Z,11.30
2018-05-18T02:37:27.005Z,11.20
2018-05-18T02:39:55.831Z,11.20
2018-05-18T02:42:25.414Z,11.20
2018-05-18T02:44:54.245Z,11.20
2018-05-18T02:47:23.082Z,11.10
2018-05-18T02:49:51.925Z,11.10
2018-05-18T02:52:20.857Z,11.20
2018-05-18T02:54:50.370Z,11.00
2018-05-18T02:57:19.203Z,11.00
2018-05-18T02:59:48.047Z,11.10
2018-05-18T03:02:16.890Z,11.10
2018-05-18T03:04:45.736Z,11.10
2018-05-18T03:07:14.578Z,11.10
2018-05-18T03:09:43.402Z,11.00
2018-05-18T03:12:12.251Z,11.00
2018-05-18T03:14:41.082Z,11.00
2018-05-18T03:17:09.920Z,11.00
2018-05-18T03:19:38.749Z,10.90
2018-05-18T03:22:07.600Z,10.90
2018-05-18T03:24:36.441Z,10.90
2018-05-18T03:27:05.264Z,10.80
2018-05-18T03:29:34.100Z,10.70
2018-05-18T03:32:02.936Z,10.80
2018-05-18T03:34:31.783Z,10.80
2018-05-18T03:37:00.614Z,10.80
2018-05-18T03:39:29.454Z,10.80
2018-05-18T03:41:58.295Z,10.70
2018-05-18T03:44:27.869Z,10.70
2018-05-18T03:46:56.713Z,10.70
2018-05-18T03:49:25.554Z,10.70
2018-05-18T03:51:54.410Z,10.70
2018-05-18T03:54:23.243Z,10.70
2018-05-18T03:56:52.089Z,10.70
2018-05-18T03:59:20.934Z,10.70
2018-05-18T04:02:08.464Z,10.70
2018-05-18T04:04:55.260Z,10.80
2018-05-18T04:07:42.082Z,10.80
2018-05-18T04:10:10.934Z,10.70
2018-05-18T04:12:39.755Z,10.70
2018-05-18T04:15:08.609Z,10.70
2018-05-18T04:17:37.445Z,10.70
2018-05-18T04:20:07.023Z,10.70
2018-05-18T04:22:35.871Z,10.60
2018-05-18T04:25:04.715Z,10.60
2018-05-18T04:27:33.569Z,10.60
2018-05-18T04:30:02.550Z,10.70
2018-05-18T04:32:31.381Z,10.70
2018-05-18T04:35:00.310Z,10.70
2018-05-18T04:37:29.115Z,10.70
2018-05-18T04:39:57.966Z,10.70
2018-05-18T04:42:27.539Z,10.70
2018-05-18T04:44:56.388Z,10.80
2018-05-18T04:47:25.233Z,10.80
2018-05-18T04:49:54.107Z,10.70
2018-05-18T04:52:22.933Z,10.70
2018-05-18T04:54:52.509Z,10.70
2018-05-18T04:57:21.357Z,10.80
2018-05-18T04:59:50.200Z,10.70
2018-05-18T05:02:19.056Z,10.70
2018-05-18T05:04:47.889Z,10.80
2018-05-18T05:07:16.732Z,10.90
2018-05-18T05:09:45.580Z,10.90
2018-05-18T05:12:14.417Z,11.00
2018-05-18T05:14:43.261Z,10.90
2018-05-18T05:17:12.110Z,10.90
2018-05-18T05:19:40.956Z,11.00
2018-05-18T05:22:10.541Z,11.00
2018-05-18T05:24:39.376Z,11.10
2018-05-18T05:27:08.221Z,11.10
2018-05-18T05:29:37.129Z,11.10
2018-05-18T05:32:06.718Z,11.10
2018-05-18T05:34:35.565Z,11.20
2018-05-18T05:37:04.413Z,11.20
2018-05-18T05:39:33.258Z,11.30
2018-05-18T05:42:02.103Z,11.40
2018-05-18T05:44:30.962Z,11.50
2018-05-18T05:46:59.788Z,11.50
2018-05-18T05:49:29.369Z,11.60
2018-05-18T05:51:58.209Z,11.60
2018-05-18T05:54:27.175Z,11.60
2018-05-18T05:56:56.014Z,11.70
2018-05-18T05:59:25.276Z,11.70
2018-05-18T06:01:55.059Z,11.70
2018-05-18T06:04:23.685Z,11.80
2018-05-18T06:06:52.530Z,11.80
2018-05-18T06:09:21.370Z,11.90
2018-05-18T06:11:50.201Z,11.90
2018-05-18T06:14:19.099Z,12.00
2018-05-18T06:16:47.949Z,11.90
2018-05-18T06:19:16.777Z,12.10
2018-05-18T06:21:45.626Z,12.10
2018-05-18T06:24:14.473Z,12.20
2018-05-18T06:26:43.318Z,12.30
2018-05-18T06:29:12.145Z,12.30
2018-05-18T06:31:41.726Z,12.40
2018-05-18T06:34:10.565Z,12.40
2018-05-18T06:36:39.417Z,12.50
2018-05-18T06:39:08.287Z,12.50
2018-05-18T06:41:37.089Z,12.60
2018-05-18T06:46:36.101Z,12.60
2018-05-18T06:49:04.946Z,12.70
2018-05-18T06:51:33.774Z,12.60
2018-05-18T06:54:02.633Z,12.60
2018-05-18T06:56:31.470Z,12.70
2018-05-18T06:59:01.044Z,12.80
2018-05-18T07:01:29.894Z,12.90
2018-05-18T07:03:58.743Z,12.90
2018-05-18T07:06:27.582Z,12.90
2018-05-18T07:08:56.401Z,13.00
2018-05-18T07:11:25.249Z,13.00
2018-05-18T07:13:54.092Z,13.00
2018-05-18T07:16:23.052Z,13.10
2018-05-18T07:18:51.843Z,13.20
2018-05-18T07:23:25.633Z,13.40
2018-05-18T07:25:55.210Z,13.40
2018-05-18T07:28:24.066Z,13.50
2018-05-18T07:30:52.898Z,13.40
2018-05-18T07:33:21.756Z,13.60
2018-05-18T07:35:50.587Z,13.60
2018-05-18T07:38:20.170Z,13.60
2018-05-18T07:40:49.011Z,13.60
2018-05-18T07:43:17.856Z,13.50
2018-05-18T07:45:46.702Z,13.60
2018-05-18T07:48:15.559Z,13.80
2018-05-18T07:50:44.408Z,13.80
2018-05-18T07:53:13.238Z,13.80
2018-05-18T07:55:42.825Z,13.90
2018-05-18T07:58:11.677Z,14.00
2018-05-18T08:00:40.522Z,13.90
2018-05-18T08:03:09.378Z,13.90
2018-05-18T08:05:38.209Z,13.90
2018-05-18T08:08:07.055Z,14.00
2018-05-18T08:10:35.900Z,14.10
2018-05-18T08:13:05.491Z,14.10
2018-05-18T08:15:34.323Z,14.30
2018-05-18T08:18:03.171Z,14.30
2018-05-18T08:20:32.032Z,14.30
2018-05-18T08:23:00.884Z,14.40
2018-05-18T08:25:29.717Z,14.30
2018-05-18T08:27:58.565Z,14.40
2018-05-18T08:30:27.395Z,14.40
2018-05-18T08:32:56.246Z,14.40
2018-05-18T08:35:25.093Z,14.50
2018-05-18T08:37:54.616Z,14.70
2018-05-18T08:40:23.489Z,14.80
2018-05-18T08:42:52.339Z,14.90
2018-05-18T08:45:21.180Z,15.00
2018-05-18T08:47:50.029Z,14.90
2018-05-18T08:50:18.896Z,15.10
2018-05-18T08:52:47.725Z,15.20
2018-05-18T08:55:16.555Z,15.40
2018-05-18T08:57:46.147Z,15.30
2018-05-18T09:00:14.984Z,15.30
2018-05-18T09:02:43.838Z,15.50
2018-05-18T09:05:12.669Z,15.30
2018-05-18T09:07:41.523Z,15.50
2018-05-18T09:10:10.372Z,15.70
2018-05-18T09:12:39.229Z,15.60
2018-05-18T09:15:08.068Z,15.40
2018-05-18T09:17:36.930Z,15.40
2018-05-18T09:20:05.767Z,15.60
2018-05-18T09:22:35.347Z,15.60
2018-05-18T09:25:04.199Z,15.70
2018-05-18T09:27:33.037Z,15.90
2018-05-18T09:30:01.896Z,16.10
2018-05-18T09:32:30.739Z,16.20
2018-05-18T09:35:01.829Z,16.30
2018-05-18T09:37:30.681Z,16.10
2018-05-18T09:39:59.520Z,16.40
2018-05-18T09:42:28.364Z,16.50
2018-05-18T09:44:57.214Z,16.60
2018-05-18T09:47:26.098Z,16.90
2018-05-18T09:49:54.948Z,16.90
2018-05-18T09:52:24.545Z,17.00
2018-05-18T09:54:53.550Z,17.00
2018-05-18T09:57:22.236Z,17.00
2018-05-18T09:59:51.832Z,16.70
2018-05-18T10:02:20.687Z,16.90
2018-05-18T10:04:50.845Z,17.20
2018-05-18T10:07:19.113Z,17.20
2018-05-18T10:09:48.715Z,17.40
2018-05-18T10:12:17.558Z,17.50
2018-05-18T10:14:46.398Z,17.40
2018-05-18T10:17:15.316Z,17.40
2018-05-18T10:19:44.895Z,17.60
2018-05-18T10:22:13.744Z,17.70
2018-05-18T10:24:42.585Z,17.90
2018-05-18T10:27:11.432Z,17.80
2018-05-18T10:29:40.264Z,17.60
2018-05-18T10:32:09.124Z,17.60
2018-05-18T10:34:37.951Z,17.90
2018-05-18T10:37:06.780Z,18.30
2018-05-18T10:39:35.687Z,18.40
2018-05-18T10:42:04.452Z,18.30
2018-05-18T10:44:33.292Z,18.40
2018-05-18T10:47:02.125Z,18.30
2018-05-18T10:49:31.022Z,18.20
2018-05-18T10:52:01.003Z,18.30
2018-05-18T10:54:28.670Z,18.50
2018-05-18T10:56:57.578Z,18.70
2018-05-18T10:59:26.373Z,18.60
2018-05-18T11:01:55.241Z,18.30
2018-05-18T11:04:24.077Z,18.40
2018-05-18T11:06:52.989Z,18.50
2018-05-18T11:09:21.791Z,18.30
2018-05-18T11:11:50.639Z,18.40
2018-05-18T11:14:19.511Z,18.10
2018-05-18T11:16:48.326Z,18.30
2018-05-18T11:19:17.161Z,18.40
2018-05-18T11:21:46.889Z,18.60
2018-05-18T11:24:15.741Z,18.60
2018-05-18T11:26:44.587Z,18.60
2018-05-18T11:29:13.434Z,18.70
2018-05-18T11:31:42.267Z,18.80
2018-05-18T11:34:11.125Z,18.70
2018-05-18T11:36:39.958Z,18.90
2018-05-18T11:39:08.811Z,19.00
2018-05-18T11:41:39.595Z,18.80
2018-05-18T11:44:07.207Z,18.80
2018-05-18T11:46:36.052Z,18.80
2018-05-18T11:49:04.929Z,18.80
2018-05-18T11:51:33.732Z,18.60
2018-05-18T11:54:02.572Z,18.90
2018-05-18T11:56:31.428Z,19.10
2018-05-18T11:59:00.282Z,19.20
2018-05-18T12:01:29.119Z,19.20
2018-05-18T12:03:58.703Z,19.10
2018-05-18T12:06:27.541Z,19.10
2018-05-18T12:08:56.533Z,19.10
2018-05-18T12:11:25.369Z,19.40
2018-05-18T12:13:54.233Z,19.10
2018-05-18T12:16:23.073Z,19.20
2018-05-18T12:18:51.927Z,19.30
2018-05-18T12:21:20.784Z,19.40
2018-05-18T12:23:50.394Z,19.80
2018-05-18T12:26:20.161Z,19.80
2018-05-18T12:29:01.685Z,19.90
2018-05-18T12:31:30.568Z,19.50
2018-05-18T12:34:00.130Z,19.60
2018-05-18T12:36:28.961Z,19.60
2018-05-18T12:38:57.824Z,19.40
2018-05-18T12:41:26.656Z,19.30
2018-05-18T12:43:55.493Z,19.70
2018-05-18T12:46:24.341Z,19.20
2018-05-18T12:48:53.233Z,19.40
2018-05-18T12:51:23.333Z,19.50
2018-05-18T12:53:50.893Z,19.90
2018-05-18T12:56:20.469Z,20.20
2018-05-18T12:58:49.318Z,20.30
2018-05-18T13:01:18.171Z,20.50
2018-05-18T13:03:47.750Z,20.30
2018-05-18T13:06:16.593Z,20.50
2018-05-18T13:08:45.438Z,20.40
2018-05-18T13:11:14.293Z,20.10
2018-05-18T13:13:43.128Z,20.10
2018-05-18T13:16:11.976Z,20.10
2018-05-18T13:18:40.820Z,20.10
2018-05-18T13:21:10.401Z,20.10
2018-05-18T13:23:39.242Z,20.40
2018-05-18T13:26:08.083Z,20.50
2018-05-18T13:28:36.929Z,20.50
2018-05-18T13:31:05.758Z,20.20
2018-05-18T13:33:34.619Z,20.50
2018-05-18T13:36:03.450Z,20.40
2018-05-18T13:38:32.378Z,20.60
2018-05-18T13:41:01.127Z,20.70
2018-05-18T13:43:29.965Z,20.70
2018-05-18T13:45:58.810Z,20.90
2018-05-18T13:48:27.650Z,20.70
2018-05-18T13:50:56.485Z,20.80
2018-05-18T13:53:25.335Z,20.70
2018-05-18T13:55:54.179Z,20.60
2018-05-18T13:58:23.024Z,20.90
2018-05-18T14:00:51.862Z,21.00
2018-05-18T14:03:20.701Z,21.20
2018-05-18T14:05:49.544Z,21.10
2018-05-18T14:08:18.403Z,20.70
2018-05-18T14:10:47.256Z,21.10
2018-05-18T14:13:16.834Z,20.80
2018-05-18T14:15:45.704Z,20.90
2018-05-18T14:18:14.546Z,20.80
2018-05-18T14:20:43.416Z,20.90
2018-05-18T14:23:12.252Z,21.00
2018-05-18T14:25:41.091Z,21.10
2018-05-18T14:28:09.929Z,21.30
2018-05-18T14:30:38.769Z,21.40
2018-05-18T14:33:07.619Z,21.30
2018-05-18T14:35:36.464Z,21.40
2018-05-18T14:38:05.310Z,21.60
2018-05-18T14:40:34.162Z,21.40
2018-05-18T14:43:03.032Z,21.40
2018-05-18T14:45:31.885Z,21.40
2018-05-18T14:48:00.737Z,21.70
2018-05-18T14:50:29.630Z,21.70
2018-05-18T14:52:58.430Z,22.00
2018-05-18T14:55:27.256Z,21.40
2018-05-18T14:57:56.107Z,21.40
2018-05-18T15:00:24.941Z,21.40
2018-05-18T15:02:53.777Z,21.50
2018-05-18T15:05:22.610Z,21.20
2018-05-18T15:07:51.475Z,20.90
2018-05-18T15:10:20.314Z,21.10
2018-05-18T15:12:49.151Z,21.50
2018-05-18T15:15:17.997Z,22.00
2018-05-18T15:17:46.830Z,22.30
2018-05-18T15:20:15.673Z,22.00
2018-05-18T15:22:44.504Z,22.30
2018-05-18T15:25:13.372Z,22.30
2018-05-18T15:27:42.209Z,22.30
2018-05-18T15:30:11.055Z,22.30
2018-05-18T15:32:39.899Z,22.10
2018-05-18T15:35:08.741Z,21.50
2018-05-18T15:37:37.605Z,21.80
2018-05-18T15:40:06.460Z,22.00
2018-05-18T15:42:35.322Z,21.70
2018-05-18T15:45:04.175Z,21.80
2018-05-18T15:47:34.687Z,21.70
2018-05-18T15:50:03.557Z,21.80
2018-05-18T15:52:32.342Z,21.40
2018-05-18T15:55:01.187Z,21.30
2018-05-18T15:57:30.078Z,21.40
2018-05-18T15:59:58.971Z,21.10
2018-05-18T16:02:27.796Z,21.10
2018-05-18T16:04:56.651Z,21.50
2018-05-18T16:07:26.230Z,21.60
2018-05-18T16:09:55.180Z,21.50
2018-05-18T16:12:23.947Z,21.20
2018-05-18T16:14:52.780Z,21.20
2018-05-18T16:17:21.610Z,21.50
2018-05-18T16:19:51.215Z,21.30
2018-05-18T16:22:20.053Z,21.50
2018-05-18T16:24:48.926Z,21.10
2018-05-18T16:27:17.753Z,21.20
2018-05-18T16:29:46.606Z,21.20
2018-05-18T16:32:15.452Z,21.20
2018-05-18T16:34:44.297Z,21.20
2018-05-18T16:37:13.153Z,21.00
2018-05-18T16:39:42.727Z,21.00
2018-05-18T16:42:11.591Z,20.80
2018-05-18T16:44:40.425Z,21.00
2018-05-18T16:47:09.281Z,20.90
2018-05-18T16:49:38.127Z,20.70
2018-05-18T16:52:06.964Z,20.60
2018-05-18T16:54:35.803Z,20.60
2018-05-18T16:57:05.376Z,20.20
2018-05-18T16:59:34.239Z,20.30
2018-05-18T17:02:03.074Z,20.10
2018-05-18T17:04:31.915Z,19.70
2018-05-18T17:07:00.751Z,19.70
2018-05-18T17:09:29.593Z,19.40
2018-05-18T17:11:58.438Z,19.40
2018-05-18T17:14:27.282Z,19.20
2018-05-18T17:16:56.121Z,19.00
2018-05-18T17:19:24.976Z,18.80
2018-05-18T17:21:53.818Z,18.80
2018-05-18T17:24:22.665Z,18.80
2018-05-18T17:26:51.499Z,18.80
2018-05-18T17:29:20.338Z,18.60
2018-05-18T17:31:49.181Z,18.60
2018-05-18T17:34:18.013Z,18.60
2018-05-18T17:36:46.861Z,18.40
2018-05-18T17:39:15.695Z,18.40
2018-05-18T17:41:44.550Z,18.30
2018-05-18T17:44:14.122Z,18.10
2018-05-18T17:46:42.992Z,18.10
2018-05-18T17:49:11.937Z,18.10
2018-05-18T17:51:40.655Z,18.00
2018-05-18T17:54:09.498Z,18.00
2018-05-18T17:56:38.327Z,18.10
2018-05-18T17:59:07.163Z,18.00
2018-05-18T18:01:35.990Z,17.90
2018-05-18T18:04:05.579Z,17.70
2018-05-18T18:09:03.841Z,17.60
2018-05-18T18:11:32.673Z,17.50
2018-05-18T18:14:01.588Z,17.50
2018-05-18T18:16:30.342Z,17.40
2018-05-18T18:18:59.167Z,17.30
2018-05-18T18:21:28.009Z,17.20
2018-05-18T18:23:56.848Z,17.10
2018-05-18T18:26:25.686Z,17.00
2018-05-18T18:28:54.540Z,16.90
2018-05-18T18:31:23.384Z,16.70
2018-05-18T18:33:52.241Z,16.70
2018-05-18T18:36:21.157Z,16.70
2018-05-18T18:38:49.904Z,16.60
2018-05-18T18:41:18.744Z,16.50
2018-05-18T18:43:47.580Z,16.50
2018-05-18T18:46:16.471Z,16.50
2018-05-18T18:48:45.286Z,16.40
2018-05-18T18:51:14.139Z,16.40
2018-05-18T18:53:43.001Z,16.30
2018-05-18T18:56:11.840Z,16.30
2018-05-18T18:58:40.759Z,16.10
2018-05-18T19:01:09.518Z,16.00
2018-05-18T19:03:38.384Z,16.10
2018-05-18T19:06:07.213Z,16.10
2018-05-18T19:08:36.072Z,16.00
2018-05-18T19:11:04.907Z,16.00
2018-05-18T19:13:33.735Z,16.00
2018-05-18T19:16:02.583Z,15.90
2018-05-18T19:18:31.421Z,15.90
2018-05-18T19:21:00.265Z,15.90
2018-05-18T19:23:29.104Z,16.00
2018-05-18T19:25:57.949Z,16.00
2018-05-18T19:28:26.776Z,15.90
2018-05-18T19:30:55.616Z,15.80
2018-05-18T19:33:24.449Z,15.80
2018-05-18T19:35:53.281Z,15.70
2018-05-18T19:38:22.114Z,15.50
2018-05-18T19:40:50.956Z,15.50
2018-05-18T19:43:19.780Z,15.50
2018-05-18T19:45:48.656Z,15.40
2018-05-18T19:48:17.499Z,15.40
2018-05-18T19:50:47.087Z,15.40
2018-05-18T19:53:15.927Z,15.40
2018-05-18T19:55:44.764Z,15.40
2018-05-18T19:58:13.613Z,15.40
2018-05-18T20:03:11.892Z,15.30
2018-05-18T20:05:40.731Z,15.30
2018-05-18T20:08:09.604Z,15.20
2018-05-18T20:10:38.448Z,15.20
2018-05-18T20:13:07.286Z,15.10
2018-05-18T20:15:36.869Z,15.00
2018-05-18T20:18:05.717Z,15.00
2018-05-18T20:20:34.551Z,15.00
2018-05-18T20:23:03.402Z,15.00
2018-05-18T20:25:32.256Z,15.00
2018-05-18T20:28:01.095Z,15.00
2018-05-18T20:30:29.928Z,15.00
2018-05-18T20:32:59.068Z,14.90
2018-05-18T20:35:27.826Z,14.90
2018-05-18T20:37:57.420Z,14.80
2018-05-18T20:40:26.255Z,14.80
2018-05-18T20:42:55.104Z,14.80
2018-05-18T20:45:23.939Z,14.80
2018-05-18T20:47:52.779Z,14.90
2018-05-18T20:50:21.654Z,14.80
2018-05-18T20:52:50.492Z,14.80
2018-05-18T20:55:19.346Z,14.80
2018-05-18T20:57:48.181Z,14.70
2018-05-18T21:00:17.028Z,14.70
2018-05-18T21:02:45.864Z,14.70
2018-05-18T21:05:14.703Z,14.60
2018-05-18T21:07:44.289Z,14.70
2018-05-18T21:10:13.120Z,14.60
2018-05-18T21:12:42.706Z,14.60
2018-05-18T21:15:11.552Z,14.50
2018-05-18T21:17:40.405Z,14.60
2018-05-18T21:20:10.001Z,14.50
2018-05-18T21:25:09.012Z,14.40
2018-05-18T21:27:37.878Z,14.30
2018-05-18T21:30:06.734Z,14.30
2018-05-18T21:32:35.567Z,14.20
2018-05-18T21:35:04.423Z,14.00
2018-05-18T21:37:33.260Z,13.90
2018-05-18T21:40:02.846Z,14.00
2018-05-18T21:42:31.676Z,14.10
2018-05-18T21:45:01.250Z,14.00
2018-05-18T21:49:59.527Z,14.00
2018-05-18T21:52:28.349Z,14.00
2018-05-18T21:54:57.215Z,14.00
2018-05-18T21:57:26.077Z,14.10
2018-05-18T21:59:55.637Z,14.00
2018-05-18T22:02:24.480Z,13.90
2018-05-18T22:04:53.335Z,13.90
2018-05-18T22:07:22.927Z,13.90
2018-05-18T22:09:51.772Z,13.80
2018-05-18T22:12:20.614Z,13.60
2018-05-18T22:14:50.302Z,13.60
2018-05-18T22:17:19.148Z,13.60
2018-05-18T22:19:47.987Z,13.60
2018-05-18T22:22:16.816Z,13.60
2018-05-18T22:24:45.754Z,13.50
2018-05-18T22:27:14.492Z,13.50
2018-05-18T22:29:43.330Z,13.40
2018-05-18T22:32:12.155Z,13.30
2018-05-18T22:34:41.750Z,13.10
2018-05-18T22:39:40.188Z,13.20
2018-05-18T22:42:09.038Z,13.20
2018-05-18T22:44:37.969Z,13.10
2018-05-18T22:47:06.879Z,13.10
2018-05-18T22:49:35.612Z,13.20
2018-05-18T22:52:05.192Z,13.20
2018-05-18T22:54:34.045Z,13.10
2018-05-18T22:57:02.880Z,13.20
2018-05-18T22:59:31.733Z,13.30
2018-05-18T23:02:00.572Z,13.30
2018-05-18T23:04:29.430Z,13.30
2018-05-18T23:06:58.274Z,13.30
2018-05-18T23:09:27.120Z,13.20
2018-05-18T23:11:55.970Z,13.30
2018-05-18T23:14:25.632Z,13.00
2018-05-18T23:16:54.400Z,13.20
2018-05-18T23:19:23.237Z,13.20
2018-05-18T23:21:52.081Z,13.20
2018-05-18T23:24:20.917Z,13.10
2018-05-18T23:26:49.751Z,13.00
2018-05-18T23:29:18.607Z,12.90
2018-05-18T23:31:47.537Z,12.80
2018-05-18T23:34:16.342Z,12.90
2018-05-18T23:36:45.186Z,12.80
2018-05-18T23:39:14.025Z,12.70
2018-05-18T23:41:42.874Z,12.70
2018-05-18T23:44:11.715Z,12.70
2018-05-18T23:46:40.557Z,12.80
2018-05-18T23:49:09.406Z,12.70
2018-05-18T23:51:38.241Z,12.70
2018-05-18T23:54:07.072Z,12.80
2018-05-18T23:56:35.921Z,12.80
2018-05-18T23:59:04.753Z,12.80
